createdAt,value
2022-08-27T12:41:43.571Z,100.00
2022-08-27T12:44:31.424Z,96.16
2022-08-27T12:48:14.263Z,86.36
2022-08-27T12:51:57.149Z,72.39
2022-08-27T12:55:31.089Z,74.08
2022-08-27T12:59:14.151Z,78.50
2022-08-27T13:02:07.273Z,79.56
2022-08-27T13:04:41.243Z,74.15
2022-08-27T13:08:24.006Z,71.50
2022-08-27T13:10:51.761Z,71.37
2022-08-27T13:14:34.713Z,72.07
2022-08-27T13:18:17.362Z,74.69
2022-08-27T13:20:46.781Z,74.13
2022-08-27T13:23:24.013Z,74.96
2022-08-27T13:26:12.573Z,71.25
2022-08-27T13:29:55.277Z,69.60
2022-08-27T13:32:27.533Z,69.37
2022-08-27T13:34:58.339Z,64.05
2022-08-27T13:37:46.445Z,61.95
2022-08-27T13:40:49.344Z,60.72
2022-08-27T13:43:18.015Z,61.33
2022-08-27T13:45:57.846Z,59.34
2022-08-27T13:48:29.036Z,55.78
2022-08-27T13:50:58.034Z,54.55
2022-08-27T13:53:49.955Z,52.77
2022-08-27T13:56:35.115Z,52.30
2022-08-27T13:59:24.115Z,53.07
2022-08-27T14:02:11.321Z,51.73
2022-08-27T14:04:42.173Z,51.51
2022-08-27T14:07:32.941Z,52.36
2022-08-27T14:10:36.938Z,53.39
2022-08-27T14:13:15.793Z,51.79
2022-08-27T14:15:51.609Z,50.72
2022-08-27T14:18:48.103Z,49.99
2022-08-27T14:21:15.266Z,49.64
2022-08-27T14:23:42.827Z,51.15
2022-08-27T14:26:10.571Z,50.68
2022-08-27T14:28:37.892Z,49.17
2022-08-27T14:31:05.449Z,49.90
2022-08-27T14:33:32.691Z,48.36
2022-08-27T14:36:00.980Z,46.52
2022-08-27T14:38:33.513Z,46.13
2022-08-27T14:41:00.786Z,45.39
2022-08-27T14:43:28.247Z,44.60
2022-08-27T14:45:57.519Z,44.20
2022-08-27T14:48:33.492Z,45.38
2022-08-27T14:51:12.336Z,46.15
2022-08-27T14:53:40.318Z,46.51
2022-08-27T14:56:07.733Z,46.63
2022-08-27T14:58:34.983Z,45.57
2022-08-27T15:01:04.908Z,43.39
2022-08-27T15:03:38.820Z,42.70
2022-08-27T15:06:07.174Z,40.51
2022-08-27T15:08:34.834Z,41.17
2022-08-27T15:11:05.399Z,41.64
2022-08-27T15:13:33.201Z,40.54
2022-08-27T15:16:00.833Z,40.69
2022-08-27T15:18:28.106Z,41.37
2022-08-27T15:20:55.646Z,42.70
2022-08-27T15:23:23.220Z,41.66
2022-08-27T15:25:50.796Z,43.02
2022-08-27T15:28:18.216Z,42.22
2022-08-27T15:30:45.521Z,43.51
2022-08-27T15:33:12.742Z,43.76
2022-08-27T15:35:40.284Z,44.34
2022-08-27T15:38:07.898Z,44.94
2022-08-27T15:40:36.630Z,45.03
2022-08-27T15:43:07.421Z,45.11
2022-08-27T15:45:35.238Z,45.57
2022-08-27T15:48:03.577Z,45.07
2022-08-27T15:50:34.281Z,45.90
2022-08-27T15:53:11.908Z,46.26
2022-08-27T15:55:44.332Z,46.57
2022-08-27T15:58:12.935Z,46.68
2022-08-27T16:00:46.473Z,46.45
2022-08-27T16:03:16.531Z,46.40
2022-08-27T16:05:46.683Z,47.49
2022-08-27T16:08:14.551Z,47.28
2022-08-27T16:10:41.855Z,47.31
2022-08-27T16:13:12.344Z,47.60
2022-08-27T16:15:42.006Z,48.23
2022-08-27T16:18:11.249Z,48.83
2022-08-27T16:20:39.142Z,49.43
2022-08-27T16:23:06.632Z,49.70
2022-08-27T16:25:34.405Z,50.32
2022-08-27T16:28:01.992Z,50.12
2022-08-27T16:30:30.202Z,50.72
2022-08-27T16:32:57.929Z,51.54
2022-08-27T16:35:25.711Z,52.39
2022-08-27T16:38:46.828Z,52.41
2022-08-27T16:41:14.198Z,53.50
2022-08-27T16:43:41.858Z,52.84
2022-08-27T16:46:10.098Z,53.50
2022-08-27T16:49:01.452Z,54.35
2022-08-27T16:51:35.926Z,54.06
2022-08-27T16:54:06.871Z,53.73
2022-08-27T16:56:37.926Z,54.05
2022-08-27T16:59:06.231Z,54.62
2022-08-27T17:01:34.758Z,55.30
2022-08-27T17:04:17.317Z,55.14
2022-08-27T17:06:51.677Z,55.21
2022-08-27T17:09:19.648Z,55.72
2022-08-27T17:12:05.227Z,56.58
2022-08-27T17:14:38.066Z,57.10
2022-08-27T17:17:08.302Z,57.17
2022-08-27T17:19:36.971Z,57.13
2022-08-27T17:22:05.473Z,57.13
2022-08-27T17:24:32.911Z,57.39
2022-08-27T17:27:00.256Z,58.76
2022-08-27T17:29:28.244Z,58.83
2022-08-27T17:31:56.263Z,59.27
2022-08-27T17:34:25.385Z,58.66
2022-08-27T17:36:54.065Z,59.33
2022-08-27T17:39:21.831Z,61.07
2022-08-27T17:41:51.920Z,61.07
2022-08-27T17:44:35.756Z,60.53
2022-08-27T17:47:08.386Z,61.26
2022-08-27T17:49:37.103Z,60.49
2022-08-27T17:52:11.389Z,60.67
2022-08-27T17:54:50.806Z,60.57
2022-08-27T17:57:40.904Z,60.66
2022-08-27T18:00:13.137Z,60.81
2022-08-27T18:02:49.046Z,61.59
2022-08-27T18:05:20.395Z,62.21
2022-08-27T18:07:48.363Z,62.95
2022-08-27T18:10:23.732Z,63.10
2022-08-27T18:12:53.492Z,64.63
2022-08-27T18:15:29.867Z,66.59
2022-08-27T18:17:58.170Z,68.18
2022-08-27T18:20:29.727Z,69.25
2022-08-27T18:22:57.895Z,69.40
2022-08-27T18:25:35.378Z,69.62
2022-08-27T18:28:12.066Z,70.80
2022-08-27T18:30:43.750Z,69.99
2022-08-27T18:33:11.998Z,70.99
2022-08-27T18:35:40.728Z,70.33
2022-08-27T18:38:08.583Z,69.90
2022-08-27T18:40:43.834Z,71.49
2022-08-27T18:43:12.251Z,70.46
2022-08-27T18:45:39.744Z,73.04
2022-08-27T18:48:22.464Z,72.68
2022-08-27T18:50:58.658Z,72.92
2022-08-27T18:53:31.742Z,71.56
2022-08-27T18:56:00.851Z,70.67
2022-08-27T18:58:31.201Z,69.53
2022-08-27T19:01:03.248Z,69.58
2022-08-27T19:03:40.418Z,70.03
2022-08-27T19:06:09.901Z,70.58
2022-08-27T19:08:39.579Z,70.77
2022-08-27T19:11:06.958Z,70.83
2022-08-27T19:13:34.915Z,68.53
2022-08-27T19:16:18.005Z,69.34
2022-08-27T19:18:46.827Z,71.87
2022-08-27T19:21:14.601Z,73.66
2022-08-27T19:23:43.282Z,74.56
2022-08-27T19:26:22.080Z,73.18
2022-08-27T19:28:49.554Z,73.77
2022-08-27T19:31:16.979Z,73.94
2022-08-27T19:33:45.066Z,74.18
2022-08-27T19:36:17.106Z,73.88
2022-08-27T19:38:46.242Z,73.86
2022-08-27T19:41:13.622Z,74.54
2022-08-27T19:43:44.657Z,75.20
2022-08-27T19:46:17.991Z,75.22
2022-08-27T19:48:45.833Z,75.68
2022-08-27T19:51:14.321Z,75.32
2022-08-27T19:53:41.942Z,73.73
2022-08-27T19:56:13.478Z,74.45
2022-08-27T19:58:43.117Z,75.27
2022-08-27T20:01:12.112Z,76.29
2022-08-27T20:03:40.539Z,76.46
2022-08-27T20:06:08.354Z,75.92
2022-08-27T20:08:36.028Z,74.76
2022-08-27T20:11:03.262Z,75.13
2022-08-27T20:13:33.251Z,74.21
2022-08-27T20:16:06.762Z,73.55
2022-08-27T20:18:40.919Z,74.15
2022-08-27T20:21:08.394Z,73.72
2022-08-27T20:23:35.868Z,72.75
2022-08-27T20:26:03.722Z,74.66
2022-08-27T20:28:40.225Z,74.27
2022-08-27T20:31:08.701Z,75.56
2022-08-27T20:33:36.165Z,74.99
2022-08-27T20:36:05.708Z,74.57
2022-08-27T20:38:32.907Z,74.89
2022-08-27T20:41:00.326Z,74.67
2022-08-27T20:43:28.614Z,75.10
2022-08-27T20:45:56.663Z,73.56
2022-08-27T20:48:24.063Z,73.11
2022-08-27T20:50:51.509Z,75.52
2022-08-27T20:53:18.876Z,75.44
2022-08-27T20:55:46.389Z,76.78
2022-08-27T20:58:33.123Z,76.23
2022-08-27T21:01:01.673Z,73.96
2022-08-27T21:03:29.234Z,73.63
2022-08-27T21:05:56.459Z,74.40
2022-08-27T21:08:23.871Z,76.23
2022-08-27T21:10:56.788Z,76.99
2022-08-27T21:13:28.322Z,76.08
2022-08-27T21:15:56.629Z,76.56
2022-08-27T21:18:29.874Z,76.40
2022-08-27T21:21:06.466Z,77.29
2022-08-27T21:23:39.212Z,77.21
2022-08-27T21:26:12.792Z,76.97
2022-08-27T21:28:43.685Z,76.14
2022-08-27T21:31:11.245Z,76.01
2022-08-27T21:33:40.035Z,76.47
2022-08-27T21:36:11.819Z,76.82
2022-08-27T21:38:40.300Z,75.66
2022-08-27T21:41:07.931Z,76.70
2022-08-27T21:43:35.456Z,76.87
2022-08-27T21:46:02.772Z,76.65
2022-08-27T21:48:30.170Z,77.99
2022-08-27T21:50:57.778Z,76.81
2022-08-27T21:53:25.554Z,76.39
2022-08-27T21:55:54.024Z,75.54
2022-08-27T21:58:26.238Z,74.21
2022-08-27T22:00:55.064Z,75.30
2022-08-27T22:03:24.474Z,74.96
2022-08-27T22:05:52.502Z,76.32
2022-08-27T22:08:22.861Z,77.56
2022-08-27T22:10:57.888Z,75.55
2022-08-27T22:13:26.003Z,74.97
2022-08-27T22:15:53.722Z,76.15
2022-08-27T22:18:23.071Z,74.69
2022-08-27T22:20:52.882Z,73.58
2022-08-27T22:23:21.601Z,73.97
2022-08-27T22:25:49.126Z,73.91
2022-08-27T22:28:18.185Z,73.66
2022-08-27T22:30:46.053Z,73.40
2022-08-27T22:33:14.917Z,74.21
2022-08-27T22:35:42.654Z,75.36
2022-08-27T22:38:10.483Z,74.01
2022-08-27T22:40:39.499Z,73.13
2022-08-27T22:43:07.871Z,71.10
2022-08-27T22:45:35.167Z,70.19
2022-08-27T22:48:03.047Z,72.04
2022-08-27T22:50:30.417Z,72.32
2022-08-27T22:52:58.288Z,72.52
2022-08-27T22:55:26.427Z,72.68
2022-08-27T22:57:55.684Z,73.60
2022-08-27T23:00:32.631Z,72.56
2022-08-27T23:03:05.542Z,73.51
2022-08-27T23:05:40.507Z,74.05
2022-08-27T23:08:13.159Z,74.27
2022-08-27T23:10:42.608Z,74.73
2022-08-27T23:13:12.454Z,74.04
2022-08-27T23:15:41.483Z,73.17
2022-08-27T23:18:09.006Z,73.09
2022-08-27T23:20:37.756Z,73.81
2022-08-27T23:23:07.807Z,74.02
2022-08-27T23:25:54.193Z,73.66
2022-08-27T23:28:23.362Z,72.61
2022-08-27T23:30:51.461Z,72.88
2022-08-27T23:33:18.962Z,72.96
2022-08-27T23:35:48.171Z,73.03
2022-08-27T23:38:18.835Z,72.22
2022-08-27T23:40:48.364Z,72.85
2022-08-27T23:43:18.254Z,72.53
2022-08-27T23:45:46.031Z,73.36
2022-08-27T23:48:13.800Z,73.32
2022-08-27T23:50:42.521Z,73.06
2022-08-27T23:53:11.368Z,72.17
2022-08-27T23:55:40.322Z,74.34
2022-08-27T23:58:08.961Z,73.69
